37M weather

Hornersville Memorial Airport
Hornersville, Missouri, United States

Public forecast

Using degrees Fahrenheit for public forecast. Weather courtesy of forecast.io.

METAR (pilot weather report)

Report is more than 6 hours old.

Closest report is Arkansas International Airport, 11.0 nm (20.4 km) ESE. Retrieved 2019/05/16 18:56 UTC (4 days ago):

KBYH 161856Z 25005G16KT 10SM FEW080 32/18 A2994 RMK LAST

TAF (pilot weather forecast)

Forecast is more than 12 hours old.

Closest forecast is Jonesboro Municipal Airport, 27.2 nm (50.4 km) WSW. Retrieved 2019/05/20 00:30 UTC (1 day ago):

TAF KJBR 202327Z 2100/2124 10009KT P6SM SCT050 BKN250 FM211400 18019G26KT P6SM SCT050 BKN250 FM212100 18022G30KT P6SM BKN050